Pembrey Sands, United Kingdom

8:10 AM BST on July 24, 2017 (GMT +0100)
Llys Holcwm | | Change Station

Elev 29 ft 51.76 °N, 4.37 °W | Updated 11 minutes ago

Clear
Clear
59.7 °F
Feels Like 59.7 °F
N
0.6
Wind Variable Wind from East
Gusts 2.5 mph

Today
High -- | Low -- °F
--% Chance of Precip.
Yesterday
High -- | Low -- °F
Precip. -- in
Pressure 30.01 in
Visibility 6.2 miles
Clouds Few 3100 ft
Dew Point 58 °F
Humidity 94%
Rainfall 0.00 in
Snow Depth Not available.
5:28 AM 9:18 PM
New Moon, 1% visible
METAR EGFF 240650Z AUTO 29006KT 9999 FEW031 17/14 Q1016
Pressure 30.01 in
Visibility 6.2 miles
Clouds Few 3100 ft
Dew Point 58 °F
Humidity 94%
Rainfall 0.00 in
Snow Depth Not available.
5:28 AM 9:18 PM
New Moon, 1% visible
METAR EGFF 240650Z AUTO 29006KT 9999 FEW031 17/14 Q1016

Get Severe Weather Alerts

Thanks for signing up!

Be on the lookout for a verification email in your inbox.

You'll start receiving the daily forecast at 6 AM.

×

10-Day Weather Forecast

×

Almanac

Astronomy

Jul. 24, 2017 Rise Set
Actual Time
Civil Twilight
Nautical Twilight
Astronomical Twilight
Moon
Length of Visible Light
Length of Day
Tomorrow will be .
, % of the Moon is Illuminated

Today's Extremes

Country Highs Country Lows

Community

WunderPhotos

Category 6

Welcome to Category 6. This is the collective home for Weather Underground's featured writeups by Dr. Jeff Masters (right), Bob Henson (left), Chris Burt, and other regular contributors.

Nearby

Air Quality

  Air Quality AQ Index Pollutant
Not available.

Snow Depth

Station Depth Elevation

Earthquake Activity

City Distance Mag. Time & Date
Minimum magnitude displayed is 2.5.

Coastal Water Temperatures

Place Temperature

Stations

Nearby Weather Stations

Station Location Temp. Windchill Dew Point Humidity Wind Precip. Elev Updated Type